Time;durP1;ratioP1;P1;durP2;ratioP2;P2;SDS_P1;SDS_P2;PMS_P1;PMS_P2;Temp;Humidity;BMP_temperature;BMP_pressure;BME280_temperature;BME280_humidity;BME280_pressure;Samples;Min_cycle;Max_cycle;Signal;HPM_P1;HPM_P2
2023/05/27 00:07:06;;;;;;;10.1;4.3;;;;;;;-132.3;0;78060;;;;
2023/05/27 00:17:06;;;;;;;10.1;4.3;;;;;;;-132.3;0;78080;;;;
2023/05/27 00:28:06;;;;;;;10.1;4.3;;;;;;;-132.3;0;78090;;;;
2023/05/27 00:38:06;;;;;;;9.2;3.4;;;;;;;-132.3;0;78100;;;;
2023/05/27 00:48:06;;;;;;;9.2;3.4;;;;;;;-132.3;0;78120;;;;
2023/05/27 00:58:09;;;;;;;9.2;3.4;;;;;;;-132.3;0;78140;;;;
2023/05/27 01:08:06;;;;;;;6.6;3.6;;;;;;;-132.3;0;78180;;;;
2023/05/27 01:19:06;;;;;;;6.6;3.6;;;;;;;-132.3;0;78190;;;;
2023/05/27 01:29:06;;;;;;;6.6;3.6;;;;;;;-132.3;0;78210;;;;
2023/05/27 01:40:06;;;;;;;8.2;3;;;;;;;-132.3;0;78220;;;;
2023/05/27 01:51:06;;;;;;;;;;;;;;;-132.3;0;78250;;;;
2023/05/27 02:02:06;;;;;;;7.4;3.5;;;;;;;-132.3;0;78280;;;;
2023/05/27 02:12:06;;;;;;;7.4;3.5;;;;;;;-132.3;0;78290;;;;
2023/05/27 02:23:06;;;;;;;6.5;3;;;;;;;-132.3;0;78320;;;;
2023/05/27 02:34:06;;;;;;;6.5;3;;;;;;;-132.3;0;78340;;;;
2023/05/27 02:45:07;;;;;;;6.5;3;;;;;;;-132.3;0;78350;;;;
2023/05/27 02:56:06;;;;;;;6.6;3;;;;;;;-132.3;0;78360;;;;
2023/05/27 03:07:06;;;;;;;6.6;3;;;;;;;-132.3;0;78360;;;;
2023/05/27 03:17:06;;;;;;;6.6;3;;;;;;;-132.3;0;78370;;;;
2023/05/27 03:28:06;;;;;;;10.3;4;;;;;;;-132.3;0;78380;;;;
2023/05/27 03:39:06;;;;;;;10.3;4;;;;;;;-132.3;0;78370;;;;
2023/05/27 03:49:06;;;;;;;10.3;4;;;;;;;-132.3;0;78340;;;;
2023/05/27 04:00:07;;;;;;;10.4;3.8;;;;;;;-132.3;0;78300;;;;
2023/05/27 04:10:06;;;;;;;10.4;3.8;;;;;;;-132.3;0;78260;;;;
2023/05/27 04:21:06;;;;;;;10.4;3.8;;;;;;;-132.3;0;78210;;;;
2023/05/27 04:31:11;;;;;;;10.9;3.8;;;;;;;-132.3;0;78150;;;;
2023/05/27 04:41:07;;;;;;;10.9;3.8;;;;;;;-132.3;0;78100;;;;
2023/05/27 04:52:06;;;;;;;12.7;6.4;;;;;;;-132.3;0;78040;;;;
2023/05/27 05:02:09;;;;;;;12.7;6.4;;;;;;;-132.3;0;78000;;;;
2023/05/27 05:12:07;;;;;;;12.7;6.4;;;;;;;-132.3;0;77950;;;;
2023/05/27 05:23:07;;;;;;;10.6;6.4;;;;;;;-132.3;0;77900;;;;
2023/05/27 05:33:06;;;;;;;10.6;6.4;;;;;;;-132.3;0;77840;;;;
2023/05/27 05:43:06;;;;;;;10.6;6.4;;;;;;;-132.3;0;77800;;;;
2023/05/27 05:54:06;;;;;;;13.6;6.2;;;;;;;-132.3;0;77760;;;;
2023/05/27 06:05:06;;;;;;;13.6;6.2;;;;;;;-132.3;0;77720;;;;
2023/05/27 06:15:06;;;;;;;13.6;6.2;;;;;;;-132.3;0;77670;;;;
2023/05/27 06:25:06;;;;;;;12.4;6.2;;;;;;;-132.3;0;77650;;;;
2023/05/27 06:36:06;;;;;;;12.4;6.2;;;;;;;-132.3;0;77610;;;;
2023/05/27 06:46:06;;;;;;;12.4;6.2;;;;;;;-132.3;0;77570;;;;
2023/05/27 06:56:06;;;;;;;12.7;7;;;;;;;-132.3;0;77550;;;;
2023/05/27 07:07:06;;;;;;;12.7;7;;;;;;;-132.3;0;77480;;;;
2023/05/27 07:17:06;;;;;;;12.7;7;;;;;;;-132.3;0;77450;;;;
2023/05/27 07:28:06;;;;;;;13.7;6.1;;;;;;;-132.3;0;77450;;;;
2023/05/27 07:39:06;;;;;;;13.7;6.1;;;;;;;-132.3;0;77380;;;;
2023/05/27 07:50:06;;;;;;;13.7;6.1;;;;;;;-132.3;0;77320;;;;
2023/05/27 08:01:06;;;;;;;13.6;7.1;;;;;;;-132.3;0;77290;;;;
2023/05/27 08:11:06;;;;;;;13.6;7.1;;;;;;;-132.3;0;77240;;;;
2023/05/27 08:22:08;;;;;;;15.4;5.8;;;;;;;-132.3;0;77220;;;;
2023/05/27 08:32:06;;;;;;;15.4;5.8;;;;;;;-132.3;0;77200;;;;
2023/05/27 08:43:06;;;;;;;15.4;5.8;;;;;;;-132.3;0;77190;;;;
2023/05/27 08:54:07;;;;;;;14.4;6.1;;;;;;;-132.3;0;77170;;;;
2023/05/27 09:04:06;;;;;;;14.4;6.1;;;;;;;-132.3;0;77110;;;;
2023/05/27 09:15:06;;;;;;;14.4;6.1;;;;;;;-132.3;0;77130;;;;
2023/05/27 09:25:06;;;;;;;12.3;5.8;;;;;;;-132.3;0;77080;;;;
2023/05/27 09:36:06;;;;;;;12.3;5.8;;;;;;;-132.3;0;77060;;;;
2023/05/27 09:47:06;;;;;;;12.3;5.8;;;;;;;-132.3;0;76990;;;;
2023/05/27 09:57:06;;;;;;;13.2;6;;;;;;;-132.3;0;76970;;;;
2023/05/27 10:07:06;;;;;;;13.2;6;;;;;;;-132.3;0;76950;;;;
2023/05/27 10:18:07;;;;;;;13.2;6;;;;;;;-132.3;0;76940;;;;
2023/05/27 10:29:07;;;;;;;14.6;5.2;;;;;;;-132.3;0;76940;;;;
2023/05/27 10:40:06;;;;;;;14.6;5.2;;;;;;;-132.3;0;76970;;;;
2023/05/27 10:50:06;;;;;;;14.6;5.2;;;;;;;-132.3;0;76970;;;;
2023/05/27 11:01:06;;;;;;;10.2;6;;;;;;;-132.3;0;76930;;;;
2023/05/27 11:11:06;;;;;;;10.2;6;;;;;;;-132.3;0;76900;;;;
2023/05/27 11:21:06;;;;;;;10.2;6;;;;;;;-132.3;0;76900;;;;
2023/05/27 11:31:06;;;;;;;9.8;4.6;;;;;;;-132.3;0;76870;;;;
2023/05/27 11:42:06;;;;;;;9.8;4.6;;;;;;;-132.3;0;76870;;;;
2023/05/27 11:52:06;;;;;;;8;4.8;;;;;;;-132.3;0;76840;;;;
2023/05/27 12:03:06;;;;;;;8;4.8;;;;;;;-132.3;0;76820;;;;
2023/05/27 12:14:06;;;;;;;8;4.8;;;;;;;-132.3;0;76810;;;;
2023/05/27 12:24:06;;;;;;;8.4;4.5;;;;;;;-132.3;0;76780;;;;
2023/05/27 12:35:06;;;;;;;8.4;4.5;;;;;;;-132.3;0;76750;;;;
2023/05/27 12:46:06;;;;;;;8.4;4.5;;;;;;;-132.3;0;76740;;;;
2023/05/27 12:56:06;;;;;;;9.1;5;;;;;;;-132.3;0;76710;;;;
2023/05/27 13:07:06;;;;;;;9.1;5;;;;;;;-132.3;0;76720;;;;
2023/05/27 13:17:06;;;;;;;9.1;5;;;;;;;-132.3;0;76680;;;;
2023/05/27 13:28:06;;;;;;;8.6;4.1;;;;;;;-132.3;0;76650;;;;
2023/05/27 13:39:06;;;;;;;8.6;4.1;;;;;;;-132.3;0;76620;;;;
2023/05/27 13:50:06;;;;;;;8.6;4.1;;;;;;;-132.3;0;76590;;;;
2023/05/27 14:00:06;;;;;;;7.3;3.3;;;;;;;-132.3;0;76590;;;;
2023/05/27 14:11:06;;;;;;;7.3;3.3;;;;;;;-132.3;0;76530;;;;
2023/05/27 14:21:07;;;;;;;7.3;3.3;;;;;;;-132.3;0;76500;;;;
2023/05/27 14:31:06;;;;;;;7.1;2.8;;;;;;;-132.3;0;76440;;;;
2023/05/27 14:42:06;;;;;;;7.1;2.8;;;;;;;-132.3;0;76490;;;;
2023/05/27 14:53:06;;;;;;;6;3.3;;;;;;;-132.3;0;76380;;;;
2023/05/27 15:03:06;;;;;;;6;3.3;;;;;;;-132.3;0;76200;;;;
2023/05/27 15:13:06;;;;;;;6;3.3;;;;;;;-132.3;0;76040;;;;
2023/05/27 15:24:07;;;;;;;14.8;6.8;;;;;;;-132.3;0;75930;;;;
2023/05/27 15:34:06;;;;;;;14.8;6.8;;;;;;;-132.3;0;75860;;;;
2023/05/27 15:44:06;;;;;;;14.8;6.8;;;;;;;-132.3;0;75990;;;;
2023/05/27 15:55:06;;;;;;;10.8;5.1;;;;;;;-132.3;0;75830;;;;
2023/05/27 16:05:06;;;;;;;10.8;5.1;;;;;;;-132.3;0;75830;;;;
2023/05/27 16:16:06;;;;;;;10.8;5.1;;;;;;;-132.3;0;75760;;;;
2023/05/27 16:27:06;;;;;;;21.5;14.9;;;;;;;-132.3;0;75940;;;;
2023/05/27 16:38:06;;;;;;;21.5;14.9;;;;;;;-132.3;0;75860;;;;
2023/05/27 16:48:07;;;;;;;21.5;14.9;;;;;;;-132.3;0;75910;;;;
2023/05/27 16:59:06;;;;;;;4.7;2.1;;;;;;;-132.3;0;75920;;;;
2023/05/27 17:09:06;;;;;;;4.7;2.1;;;;;;;-132.3;0;76160;;;;
2023/05/27 17:20:08;;;;;;;4.7;2.1;;;;;;;-132.3;0;76360;;;;
2023/05/27 17:31:06;;;;;;;5.2;2.2;;;;;;;;;;;;;
2023/05/27 17:41:07;;;;;;;5.2;2.2;;;;;;;;;;;;;
2023/05/27 17:52:07;;;;;;;5.2;2.2;;;;;;;;;;;;;
2023/05/27 18:03:06;;;;;;;7.4;3.3;;;;;;;;;;;;;
2023/05/27 18:14:06;;;;;;;;;;;;;;;-143.2;60.3;75900;;;;
2023/05/27 18:24:08;;;;;;;6.2;3.2;;;;;;;-143.2;60.2;75980;;;;
2023/05/27 18:35:06;;;;;;;6.2;3.2;;;;;;;-143.2;64.9;76100;;;;
2023/05/27 18:45:06;;;;;;;6.2;3.2;;;;;;;-143.2;68.4;76190;;;;
2023/05/27 18:56:06;;;;;;;10.2;4.9;;;;;;;-143.2;69;76280;;;;
2023/05/27 19:07:06;;;;;;;10.2;4.9;;;;;;;-143.2;72.7;76340;;;;
2023/05/27 19:18:06;;;;;;;8.8;5.3;;;;;;;-143.2;75.9;76390;;;;
2023/05/27 19:28:06;;;;;;;8.8;5.3;;;;;;;-143.2;76.8;76420;;;;
2023/05/27 19:39:06;;;;;;;8.8;5.3;;;;;;;-143.2;77.9;76470;;;;
2023/05/27 19:50:06;;;;;;;9.2;5.3;;;;;;;-143.2;79.3;76520;;;;
2023/05/27 20:01:07;;;;;;;9.2;5.3;;;;;;;-143.2;84.8;76540;;;;
2023/05/27 20:11:06;;;;;;;9.2;5.3;;;;;;;-143.2;82.9;76550;;;;
2023/05/27 20:22:07;;;;;;;13.8;7.4;;;;;;;-143.2;84.2;76570;;;;
2023/05/27 20:33:06;;;;;;;13.8;7.4;;;;;;;-143.2;86.7;76610;;;;
2023/05/27 20:43:07;;;;;;;13.8;7.4;;;;;;;-143.2;87;76640;;;;
2023/05/27 20:53:07;;;;;;;10;6.7;;;;;;;-143.2;89.3;76670;;;;
2023/05/27 21:04:07;;;;;;;10;6.7;;;;;;;-143.2;93.2;76690;;;;
2023/05/27 21:14:07;;;;;;;10;6.7;;;;;;;-143.2;92.8;76710;;;;
2023/05/27 21:24:06;;;;;;;13.4;6.4;;;;;;;-143.2;93.8;76720;;;;
2023/05/27 21:34:07;;;;;;;13.4;6.4;;;;;;;-143.2;93.9;76750;;;;
2023/05/27 21:45:06;;;;;;;;;;;;;;;-143.2;95.6;76770;;;;
2023/05/27 21:55:06;;;;;;;8.3;4.3;;;;;;;-143.2;95.7;76800;;;;
2023/05/27 22:06:07;;;;;;;8.3;4.3;;;;;;;-143.2;95.7;76850;;;;
2023/05/27 22:17:07;;;;;;;8.7;4.9;;;;;;;-143.2;96.6;76890;;;;
2023/05/27 22:27:06;;;;;;;8.7;4.9;;;;;;;-143.2;97.4;76930;;;;
2023/05/27 22:38:07;;;;;;;8.7;4.9;;;;;;;-143.2;98.7;76950;;;;
2023/05/27 22:49:08;;;;;;;8.9;4.4;;;;;;;-143.2;100;76950;;;;
2023/05/27 23:00:07;;;;;;;8.9;4.4;;;;;;;-143.2;100;76960;;;;
2023/05/27 23:10:07;;;;;;;8.9;4.4;;;;;;;-143.2;100;76980;;;;
2023/05/27 23:20:07;;;;;;;9.5;4.5;;;;;;;-143.2;99.5;76990;;;;
2023/05/27 23:31:07;;;;;;;9.5;4.5;;;;;;;-143.2;99.9;77010;;;;
2023/05/27 23:42:07;;;;;;;9.5;4.5;;;;;;;-143.2;99.5;77050;;;;
2023/05/27 23:52:07;;;;;;;7.3;4;;;;;;;-143.2;100;77070;;;;
